Time;durP1;ratioP1;P1;durP2;ratioP2;P2;SDS_P1;SDS_P2;PMS_P1;PMS_P2;Temp;Humidity;BMP_temperature;BMP_pressure;BME280_temperature;BME280_humidity;BME280_pressure;Samples;Min_cycle;Max_cycle;Signal;HPM_P1;HPM_P2
2021/07/29 00:01:11;;;;;;;4.32;2.00;;;20.50;85.70;;;;;;4160175;28;20429;-80
2021/07/29 00:03:14;;;;;;;4.43;2.38;;;20.30;86.30;;;;;;4146513;28;20060;-78
2021/07/29 00:05:17;;;;;;;5.53;2.08;;;20.40;86.60;;;;;;4145173;28;20050;-80
2021/07/29 00:07:20;;;;;;;4.70;2.67;;;20.30;86.90;;;;;;4146391;28;20077;-78
2021/07/29 00:09:23;;;;;;;8.45;2.67;;;20.20;87.60;;;;;;4146279;28;20421;-77
2021/07/29 00:11:27;;;;;;;5.38;2.42;;;20.20;87.50;;;;;;4146330;28;20045;-79
2021/07/29 00:13:32;;;;;;;2.95;2.40;;;20.20;87.90;;;;;;4146392;28;20058;-76
2021/07/29 00:15:35;;;;;;;8.27;2.60;;;20.30;87.40;;;;;;4146126;28;20066;-75
2021/07/29 00:19:57;;;;;;;6.63;2.38;;;20.40;87.50;;;;;;4146278;28;20068;-76
2021/07/29 00:21:59;;;;;;;6.43;1.95;;;20.40;87.60;;;;;;4146207;28;20053;-80
2021/07/29 00:24:03;;;;;;;12.00;2.92;;;20.40;87.50;;;;;;4146128;28;20050;-78
2021/07/29 00:26:08;;;;;;;8.88;2.45;;;20.30;88.70;;;;;;4146502;28;20085;-77
2021/07/29 00:28:11;;;;;;;8.95;2.50;;;20.10;89.00;;;;;;4146118;28;20064;-78
2021/07/29 00:30:19;;;;;;;9.85;2.88;;;20.20;89.20;;;;;;4155616;28;20158;-78
2021/07/29 00:32:22;;;;;;;7.15;2.50;;;20.20;89.10;;;;;;4162685;28;20506;-78
2021/07/29 00:34:25;;;;;;;7.32;2.80;;;20.30;89.00;;;;;;4162372;28;20666;-79
2021/07/29 00:36:28;;;;;;;4.60;2.10;;;20.10;90.10;;;;;;4162447;28;20060;-77
2021/07/29 00:38:31;;;;;;;7.75;2.50;;;19.90;90.20;;;;;;4162515;28;20559;-79
2021/07/29 00:40:34;;;;;;;4.82;2.20;;;20.00;90.40;;;;;;4162566;28;20053;-79
2021/07/29 00:42:38;;;;;;;5.57;2.45;;;20.00;90.40;;;;;;4163208;28;20061;-74
2021/07/29 00:44:41;;;;;;;8.82;3.10;;;20.10;90.30;;;;;;4162880;28;20057;-78
2021/07/29 00:46:45;;;;;;;8.38;2.80;;;20.10;90.50;;;;;;4162544;28;20053;-77
2021/07/29 00:48:48;;;;;;;12.68;2.70;;;20.00;90.50;;;;;;4162517;28;20493;-81
2021/07/29 00:50:51;;;;;;;6.22;2.58;;;19.90;90.70;;;;;;4162678;28;20057;-79
2021/07/29 00:52:54;;;;;;;8.15;2.17;;;20.00;90.60;;;;;;4162618;28;20144;-79
2021/07/29 00:54:58;;;;;;;6.38;2.55;;;20.10;90.60;;;;;;4162319;28;20053;-78
2021/07/29 00:57:02;;;;;;;10.17;2.50;;;20.00;91.00;;;;;;4162680;28;20053;-76
2021/07/29 00:59:06;;;;;;;6.05;2.55;;;20.10;90.70;;;;;;4162513;28;20532;-79
2021/07/29 01:01:09;;;;;;;6.50;2.67;;;20.00;91.00;;;;;;4162035;28;20064;-76
2021/07/29 01:03:14;;;;;;;10.90;2.80;;;20.10;90.90;;;;;;4162486;28;20062;-79
2021/07/29 01:05:18;;;;;;;8.98;2.40;;;20.10;90.80;;;;;;4165145;28;20061;-77
2021/07/29 01:07:21;;;;;;;6.45;2.97;;;20.00;91.00;;;;;;4165286;28;20531;-77
2021/07/29 01:09:24;;;;;;;5.10;2.50;;;19.90;91.40;;;;;;4163902;28;20100;-78
2021/07/29 01:11:27;;;;;;;9.38;2.60;;;19.90;91.40;;;;;;4165101;28;20516;-75
2021/07/29 01:13:30;;;;;;;8.30;2.67;;;19.90;91.40;;;;;;4165150;28;20064;-77
2021/07/29 01:15:33;;;;;;;8.48;2.53;;;20.00;91.40;;;;;;4165018;28;20054;-74
2021/07/29 01:17:36;;;;;;;6.03;2.40;;;20.00;91.60;;;;;;4165312;28;20053;-78
2021/07/29 01:19:40;;;;;;;10.23;2.63;;;20.10;91.20;;;;;;4164952;28;20068;-79
2021/07/29 01:21:45;;;;;;;4.53;2.60;;;20.10;91.40;;;;;;4165365;28;20049;-78
2021/07/29 01:23:48;;;;;;;7.60;2.47;;;20.00;91.50;;;;;;4165462;28;20476;-78
2021/07/29 01:25:51;;;;;;;5.93;2.50;;;20.10;91.50;;;;;;4165283;28;20045;-75
2021/07/29 01:27:54;;;;;;;7.10;2.58;;;19.90;91.80;;;;;;4165043;28;20428;-76
2021/07/29 01:29:58;;;;;;;6.72;2.58;;;19.90;91.70;;;;;;4164915;28;20060;-78
2021/07/29 01:32:01;;;;;;;6.55;2.67;;;20.00;91.70;;;;;;4165140;28;20049;-77
2021/07/29 01:34:04;;;;;;;9.32;2.97;;;20.00;91.60;;;;;;4163519;28;20052;-78
2021/07/29 01:36:07;;;;;;;7.30;2.88;;;20.10;91.50;;;;;;4164487;28;20528;-77
2021/07/29 01:38:12;;;;;;;8.10;3.17;;;20.20;91.50;;;;;;4164923;28;20064;-78
2021/07/29 01:40:15;;;;;;;6.43;2.70;;;20.10;91.70;;;;;;4164355;28;20054;-78
2021/07/29 01:42:18;;;;;;;6.93;2.58;;;20.10;91.60;;;;;;4164967;28;20056;-80
2021/07/29 01:44:21;;;;;;;5.10;2.67;;;20.00;91.90;;;;;;4164389;28;20045;-78
2021/07/29 01:46:24;;;;;;;7.97;3.20;;;20.00;92.00;;;;;;4164772;28;20054;-79
2021/07/29 01:48:29;;;;;;;8.38;3.00;;;20.00;91.80;;;;;;4164668;28;20418;-76
2021/07/29 01:50:31;;;;;;;7.57;2.70;;;20.00;91.80;;;;;;4164384;28;20058;-76
2021/07/29 01:52:37;;;;;;;5.03;2.65;;;20.00;92.00;;;;;;4164536;28;20397;-78
2021/07/29 01:54:42;;;;;;;9.20;2.58;;;19.80;92.30;;;;;;4164370;28;20054;-75
2021/07/29 01:56:45;;;;;;;5.82;2.80;;;19.80;92.60;;;;;;4164265;28;20054;-79
2021/07/29 01:58:48;;;;;;;6.63;2.65;;;19.80;92.50;;;;;;4164625;28;20053;-78
2021/07/29 02:00:53;;;;;;;5.43;2.63;;;19.70;92.70;;;;;;4163240;28;20057;-78
2021/07/29 02:02:56;;;;;;;8.57;3.10;;;19.60;92.90;;;;;;4164714;28;20080;-75
2021/07/29 02:04:59;;;;;;;9.40;2.90;;;19.60;93.30;;;;;;4164765;28;20042;-79
2021/07/29 02:07:03;;;;;;;7.68;2.80;;;19.60;93.40;;;;;;4164697;28;20071;-76
2021/07/29 02:09:06;;;;;;;6.88;3.17;;;19.60;93.40;;;;;;4164778;28;20058;-77
2021/07/29 02:11:10;;;;;;;8.48;3.50;;;19.60;93.20;;;;;;4164260;28;20053;-77
2021/07/29 02:13:14;;;;;;;8.80;2.88;;;19.70;93.20;;;;;;4164143;28;20056;-75
2021/07/29 02:15:17;;;;;;;8.75;3.10;;;19.60;93.40;;;;;;4164260;28;20061;-77
2021/07/29 02:17:20;;;;;;;7.47;2.60;;;19.60;93.50;;;;;;4164087;28;20062;-80
2021/07/29 02:19:23;;;;;;;6.38;3.05;;;19.60;93.70;;;;;;4164096;28;20053;-78
2021/07/29 02:21:26;;;;;;;8.35;2.97;;;19.50;93.70;;;;;;4164386;28;20053;-77
2021/07/29 02:23:29;;;;;;;8.00;2.83;;;19.40;93.80;;;;;;4164086;28;20063;-76
2021/07/29 02:25:32;;;;;;;7.97;2.60;;;19.40;93.90;;;;;;4163916;28;20083;-77
2021/07/29 02:27:37;;;;;;;6.53;2.92;;;19.50;93.60;;;;;;4164122;28;20145;-76
2021/07/29 02:29:40;;;;;;;6.00;3.05;;;19.60;93.50;;;;;;4164058;28;20535;-76
2021/07/29 02:31:43;;;;;;;7.72;2.85;;;19.70;93.50;;;;;;4164319;28;20053;-76
2021/07/29 02:33:46;;;;;;;8.75;2.60;;;19.60;93.50;;;;;;4165065;28;20057;-76
2021/07/29 02:35:50;;;;;;;6.97;3.17;;;19.70;93.30;;;;;;4164018;28;20057;-77
2021/07/29 02:37:53;;;;;;;8.27;2.97;;;19.70;93.40;;;;;;4165818;28;20425;-76
2021/07/29 02:39:56;;;;;;;9.70;3.00;;;19.70;93.60;;;;;;4165136;28;20052;-75
2021/07/29 02:41:59;;;;;;;4.75;2.88;;;19.70;93.60;;;;;;4164920;28;20375;-77
2021/07/29 02:44:03;;;;;;;5.57;3.05;;;19.70;93.70;;;;;;4164790;28;20049;-76
2021/07/29 02:46:06;;;;;;;5.07;2.60;;;19.70;93.50;;;;;;4163926;28;20616;-78
2021/07/29 02:48:09;;;;;;;5.10;2.80;;;19.70;93.50;;;;;;4164227;28;20045;-76
2021/07/29 02:50:12;;;;;;;7.25;2.97;;;19.60;93.90;;;;;;4163398;28;20410;-78
2021/07/29 02:52:15;;;;;;;7.75;2.78;;;19.70;93.50;;;;;;4163552;28;20060;-77
2021/07/29 02:54:18;;;;;;;6.60;2.63;;;19.70;93.50;;;;;;4163856;28;20063;-77
2021/07/29 02:56:21;;;;;;;5.18;2.83;;;19.70;93.70;;;;;;4163857;28;20061;-76
2021/07/29 02:58:25;;;;;;;6.00;2.55;;;19.70;93.50;;;;;;4163333;28;20672;-75
2021/07/29 03:00:30;;;;;;;9.82;3.58;;;19.70;93.90;;;;;;4163483;28;20089;-76
2021/07/29 03:02:33;;;;;;;5.57;2.92;;;19.60;93.80;;;;;;4149445;28;20421;-78
2021/07/29 03:04:36;;;;;;;4.55;2.70;;;19.60;94.10;;;;;;4147627;28;20056;-76
2021/07/29 03:06:39;;;;;;;5.10;2.78;;;19.60;94.20;;;;;;4145993;28;20054;-76
2021/07/29 03:08:42;;;;;;;8.60;3.00;;;19.50;94.10;;;;;;4147275;28;20054;-77
2021/07/29 03:10:46;;;;;;;8.38;2.75;;;19.50;94.10;;;;;;4148223;28;20510;-77
2021/07/29 03:12:49;;;;;;;7.60;2.78;;;19.60;94.20;;;;;;4147852;28;20417;-78
2021/07/29 03:14:52;;;;;;;7.07;3.10;;;19.60;94.10;;;;;;4147723;28;20058;-79
2021/07/29 03:16:56;;;;;;;6.55;2.63;;;19.60;94.10;;;;;;4146615;28;20069;-78
2021/07/29 03:19:02;;;;;;;7.10;3.50;;;19.60;94.00;;;;;;4146144;28;20453;-78
2021/07/29 03:21:06;;;;;;;6.28;3.08;;;19.60;94.10;;;;;;4147001;28;20387;-78
2021/07/29 03:23:10;;;;;;;5.70;2.80;;;19.60;94.20;;;;;;4146802;28;20061;-78
2021/07/29 03:25:13;;;;;;;6.43;3.05;;;19.50;94.20;;;;;;4146925;28;20054;-77
2021/07/29 03:27:16;;;;;;;9.52;3.00;;;19.40;94.30;;;;;;4146339;28;20050;-76
2021/07/29 03:29:19;;;;;;;7.82;2.90;;;19.50;94.30;;;;;;4149147;28;20054;-74
2021/07/29 03:31:22;;;;;;;6.10;2.78;;;19.50;94.10;;;;;;4162826;28;20061;-76
2021/07/29 03:33:26;;;;;;;4.70;2.55;;;19.40;94.40;;;;;;4163278;28;20050;-76
2021/07/29 03:35:29;;;;;;;7.47;2.67;;;19.40;94.30;;;;;;4163285;28;20059;-76
2021/07/29 03:37:32;;;;;;;7.45;2.83;;;19.40;94.40;;;;;;4163028;28;20054;-77
2021/07/29 03:39:36;;;;;;;8.95;2.70;;;19.40;94.50;;;;;;4163140;28;20145;-79
2021/07/29 03:41:39;;;;;;;8.55;3.17;;;19.30;94.80;;;;;;4163128;28;20061;-79
2021/07/29 03:43:42;;;;;;;8.15;3.40;;;19.30;94.50;;;;;;4162841;28;20067;-75
2021/07/29 03:45:45;;;;;;;8.85;3.10;;;19.30;94.80;;;;;;4162991;28;20494;-77
2021/07/29 03:47:48;;;;;;;9.63;2.85;;;19.30;95.00;;;;;;4163309;28;20490;-76
2021/07/29 03:49:52;;;;;;;5.57;3.13;;;19.30;94.70;;;;;;4163539;28;20072;-75
2021/07/29 03:51:57;;;;;;;5.68;2.95;;;19.10;95.00;;;;;;4162008;28;20486;-77
2021/07/29 03:54:00;;;;;;;6.88;2.90;;;19.20;95.00;;;;;;4162726;28;20053;-74
2021/07/29 03:56:03;;;;;;;6.00;3.05;;;19.10;95.50;;;;;;4162889;28;20057;-77
2021/07/29 03:58:06;;;;;;;5.75;2.78;;;18.90;95.70;;;;;;4162953;28;20077;-77
2021/07/29 04:00:10;;;;;;;12.38;3.33;;;18.90;95.70;;;;;;4164587;28;20049;-76
2021/07/29 04:02:13;;;;;;;8.32;3.08;;;18.90;95.70;;;;;;4165641;28;20053;-74
2021/07/29 04:04:16;;;;;;;7.03;3.30;;;19.10;95.70;;;;;;4162636;28;20064;-73
2021/07/29 04:06:21;;;;;;;8.57;2.97;;;19.10;95.40;;;;;;4162963;28;20057;-73
2021/07/29 04:08:24;;;;;;;7.82;2.70;;;19.10;95.60;;;;;;4163197;28;20079;-78
2021/07/29 04:10:27;;;;;;;6.13;2.78;;;19.00;95.70;;;;;;4162567;28;20063;-77
2021/07/29 04:12:30;;;;;;;6.32;3.08;;;18.90;96.00;;;;;;4163119;28;20076;-79
2021/07/29 04:14:34;;;;;;;10.48;3.40;;;18.90;96.20;;;;;;4163107;28;20061;-78
2021/07/29 04:16:37;;;;;;;6.93;3.00;;;18.90;96.00;;;;;;4163550;28;20063;-78
2021/07/29 04:18:42;;;;;;;8.43;3.65;;;18.90;96.00;;;;;;4163493;28;20063;-78
2021/07/29 04:20:45;;;;;;;;;;;19.00;96.40;;;;;;4165154;28;20140;-77
2021/07/29 04:22:49;;;;;;;10.82;3.60;;;18.90;96.10;;;;;;4163446;28;20369;-76
2021/07/29 04:24:54;;;;;;;6.75;2.90;;;19.00;96.10;;;;;;4162858;28;20054;-79
2021/07/29 04:26:57;;;;;;;7.53;3.47;;;19.00;96.20;;;;;;4162749;28;20420;-75
2021/07/29 04:29:00;;;;;;;8.48;3.08;;;18.80;96.50;;;;;;4162961;28;20057;-77
2021/07/29 04:31:03;;;;;;;6.82;2.83;;;18.90;96.40;;;;;;4146465;28;20058;-75
2021/07/29 04:33:08;;;;;;;7.80;3.35;;;18.90;96.40;;;;;;4146601;28;20062;-77
2021/07/29 04:35:11;;;;;;;6.35;2.97;;;18.90;96.40;;;;;;4146780;28;20053;-78
2021/07/29 04:37:14;;;;;;;9.48;3.20;;;18.90;96.40;;;;;;4150763;28;20045;-77
2021/07/29 04:39:18;;;;;;;11.68;3.35;;;19.00;96.30;;;;;;4155756;28;20053;-77
2021/07/29 04:41:21;;;;;;;9.57;2.92;;;18.90;96.60;;;;;;4156117;28;20064;-76
2021/07/29 04:43:25;;;;;;;6.88;2.92;;;19.00;96.20;;;;;;4181767;28;20053;-76
2021/07/29 04:45:28;;;;;;;8.20;3.38;;;19.00;96.50;;;;;;4150762;28;20473;-79
2021/07/29 04:47:31;;;;;;;8.82;3.03;;;18.90;96.50;;;;;;4150196;28;20532;-78
2021/07/29 04:49:35;;;;;;;7.20;3.30;;;18.90;96.50;;;;;;4150258;28;20068;-78
2021/07/29 04:51:40;;;;;;;11.75;3.25;;;19.00;96.40;;;;;;4150052;28;20072;-79
2021/07/29 04:53:43;;;;;;;;;;;18.90;96.90;;;;;;4150362;28;20061;-77
2021/07/29 04:55:47;;;;;;;7.68;2.90;;;19.00;96.60;;;;;;4150300;28;19933;-77
2021/07/29 04:57:50;;;;;;;7.13;3.08;;;19.00;96.50;;;;;;4165558;28;20057;-80
2021/07/29 04:59:53;;;;;;;6.15;3.33;;;19.00;96.30;;;;;;4166220;28;20061;-79
2021/07/29 05:01:56;;;;;;;5.30;2.97;;;19.10;96.10;;;;;;4165874;28;20049;-77
2021/07/29 05:04:02;;;;;;;7.20;3.20;;;19.20;95.80;;;;;;4165927;28;20049;-78
2021/07/29 05:06:05;;;;;;;9.02;3.20;;;19.20;96.00;;;;;;4165820;28;20524;-77
2021/07/29 05:08:08;;;;;;;8.82;3.33;;;19.20;96.10;;;;;;4165250;28;20068;-78
2021/07/29 05:10:11;;;;;;;10.77;3.38;;;19.30;96.40;;;;;;4165438;28;20064;-78
2021/07/29 05:12:16;;;;;;;7.10;3.17;;;19.20;96.20;;;;;;4165242;28;20063;-75
2021/07/29 05:14:18;;;;;;;9.85;3.20;;;19.30;96.30;;;;;;4165230;28;20509;-78
2021/07/29 05:16:22;;;;;;;14.73;3.40;;;19.10;96.80;;;;;;4165486;28;20391;-75
2021/07/29 05:18:25;;;;;;;10.18;3.45;;;18.90;97.20;;;;;;4166909;28;20064;-75
2021/07/29 05:20:28;;;;;;;7.93;3.65;;;18.90;97.40;;;;;;4166801;28;20084;-80
2021/07/29 05:22:31;;;;;;;7.35;3.10;;;18.90;97.10;;;;;;4166060;28;20523;-75
2021/07/29 05:24:34;;;;;;;6.65;2.95;;;18.80;97.50;;;;;;4166220;28;20061;-78
2021/07/29 05:26:37;;;;;;;11.52;3.15;;;18.70;97.60;;;;;;4165886;28;20064;-80
2021/07/29 05:28:42;;;;;;;8.80;3.42;;;18.80;97.60;;;;;;4166562;28;20058;-79
2021/07/29 05:30:45;;;;;;;7.88;3.13;;;18.60;98.00;;;;;;4166628;28;20060;-73
2021/07/29 05:32:48;;;;;;;5.85;2.63;;;18.70;97.80;;;;;;4165692;28;20056;-72
2021/07/29 05:34:51;;;;;;;8.30;3.08;;;18.80;97.60;;;;;;4165408;28;20057;-72
2021/07/29 05:36:54;;;;;;;8.88;3.22;;;18.90;97.50;;;;;;4165282;28;20053;-72
2021/07/29 05:38:57;;;;;;;10.43;3.47;;;18.90;97.20;;;;;;4164604;28;20056;-76
2021/07/29 05:41:04;;;;;;;10.32;3.10;;;19.00;97.00;;;;;;4164659;28;20049;-77
2021/07/29 05:43:07;;;;;;;10.20;2.92;;;19.00;96.80;;;;;;4165076;28;20620;-78
2021/07/29 05:45:11;;;;;;;13.98;3.30;;;19.10;97.10;;;;;;4164819;28;20502;-76
2021/07/29 05:47:14;;;;;;;7.50;3.33;;;19.00;97.30;;;;;;4164851;28;20057;-75
2021/07/29 05:49:17;;;;;;;8.10;2.78;;;18.90;97.30;;;;;;4164155;28;20064;-77
2021/07/29 05:51:20;;;;;;;7.47;3.25;;;19.10;97.20;;;;;;4164788;28;20056;-77
2021/07/29 05:53:24;;;;;;;10.30;3.47;;;19.20;96.80;;;;;;4164557;28;20053;-77
2021/07/29 05:55:27;;;;;;;8.07;3.22;;;19.10;96.90;;;;;;4164685;28;20087;-75
2021/07/29 05:57:32;;;;;;;7.10;2.83;;;19.00;97.10;;;;;;4165537;28;20056;-74
2021/07/29 05:59:35;;;;;;;9.10;3.20;;;19.10;97.20;;;;;;4165640;28;20065;-74
2021/07/29 06:01:39;;;;;;;10.98;3.22;;;19.00;97.10;;;;;;4164712;28;20057;-74
2021/07/29 06:03:42;;;;;;;8.70;3.20;;;18.90;97.50;;;;;;4164696;28;20053;-78
2021/07/29 06:05:45;;;;;;;11.57;3.38;;;18.90;97.50;;;;;;4164818;28;20071;-74
2021/07/29 06:07:48;;;;;;;9.23;3.13;;;19.00;97.50;;;;;;4164881;28;20057;-76
2021/07/29 06:09:51;;;;;;;12.38;3.33;;;19.10;97.10;;;;;;4164827;28;20053;-77
2021/07/29 06:11:54;;;;;;;8.88;2.65;;;19.10;97.40;;;;;;4164526;28;20056;-74
2021/07/29 06:13:58;;;;;;;11.50;3.55;;;19.20;96.80;;;;;;4164110;28;20058;-79
2021/07/29 06:16:02;;;;;;;11.68;3.25;;;19.10;97.10;;;;;;4164521;28;20057;-75
2021/07/29 06:18:10;;;;;;;9.57;3.20;;;19.30;97.00;;;;;;4164548;28;20461;-78
2021/07/29 06:20:13;;;;;;;12.82;3.05;;;19.40;96.60;;;;;;4166036;28;20057;-76
2021/07/29 06:22:16;;;;;;;7.68;2.92;;;19.30;96.90;;;;;;4164506;28;20133;-79
2021/07/29 06:24:19;;;;;;;9.40;3.05;;;19.40;96.60;;;;;;4164452;28;20057;-80
2021/07/29 06:26:22;;;;;;;8.27;3.22;;;19.40;96.90;;;;;;4164112;28;20053;-79
2021/07/29 06:28:31;;;;;;;8.68;2.67;;;19.40;96.70;;;;;;4164253;28;20054;-79
2021/07/29 06:30:34;;;;;;;7.00;2.70;;;19.30;96.70;;;;;;4164225;28;20057;-80
2021/07/29 06:32:37;;;;;;;12.65;3.17;;;19.30;96.70;;;;;;4164106;28;20061;-80
2021/07/29 06:34:42;;;;;;;8.15;3.00;;;19.20;96.90;;;;;;4164326;28;20064;-79
2021/07/29 06:36:45;;;;;;;9.07;2.60;;;19.10;97.00;;;;;;4164415;28;20520;-74
2021/07/29 06:38:47;;;;;;;12.00;3.45;;;19.00;97.30;;;;;;4164383;28;20058;-75
2021/07/29 06:40:50;;;;;;;9.93;3.03;;;18.90;97.80;;;;;;4164005;28;20080;-76
2021/07/29 06:42:53;;;;;;;10.23;3.13;;;18.90;97.70;;;;;;4164053;28;20521;-77
2021/07/29 06:44:56;;;;;;;8.80;2.95;;;18.90;97.70;;;;;;4164243;28;20053;-79
2021/07/29 06:46:59;;;;;;;5.78;2.72;;;19.10;97.20;;;;;;4163667;28;20077;-80
2021/07/29 06:49:02;;;;;;;9.85;3.13;;;19.00;97.50;;;;;;4163853;28;20527;-79
2021/07/29 06:51:08;;;;;;;12.38;3.15;;;19.10;97.40;;;;;;4163629;28;20061;-81
2021/07/29 06:53:14;;;;;;;11.43;3.50;;;19.10;97.40;;;;;;4163596;28;20053;-75
2021/07/29 06:55:17;;;;;;;8.35;3.22;;;19.20;97.30;;;;;;4163701;28;20133;-76
2021/07/29 06:57:20;;;;;;;7.00;3.10;;;19.30;97.00;;;;;;4162223;28;20391;-76
2021/07/29 06:59:23;;;;;;;13.07;3.20;;;19.40;96.70;;;;;;4163758;28;20053;-78
2021/07/29 07:01:26;;;;;;;11.05;3.25;;;19.40;96.60;;;;;;4162579;28;20064;-76
2021/07/29 07:03:30;;;;;;;7.10;2.65;;;19.50;96.70;;;;;;4163795;28;20527;-74
2021/07/29 07:05:33;;;;;;;16.30;3.30;;;19.50;96.40;;;;;;4163423;28;20148;-76
2021/07/29 07:07:38;;;;;;;10.57;3.22;;;19.70;96.10;;;;;;4163469;28;20057;-79
2021/07/29 07:09:42;;;;;;;10.05;3.00;;;19.80;96.00;;;;;;4163560;28;20060;-80
2021/07/29 07:11:45;;;;;;;8.30;2.95;;;19.90;96.00;;;;;;4163607;28;20061;-79
2021/07/29 07:13:48;;;;;;;8.32;2.70;;;20.00;95.50;;;;;;4163137;28;20057;-77
2021/07/29 07:15:51;;;;;;;10.98;3.20;;;20.00;95.50;;;;;;4163287;28;20049;-79
2021/07/29 07:17:55;;;;;;;8.02;2.92;;;20.00;95.40;;;;;;4163415;28;20379;-78
2021/07/29 07:20:00;;;;;;;10.93;3.33;;;20.00;95.50;;;;;;4163344;28;20402;-76
2021/07/29 07:22:05;;;;;;;8.45;2.78;;;19.90;95.60;;;;;;4163312;28;20057;-78
2021/07/29 07:24:09;;;;;;;8.70;2.40;;;19.80;95.60;;;;;;4163419;28;20105;-76
2021/07/29 07:26:16;;;;;;;16.25;2.67;;;19.90;95.70;;;;;;4163261;28;20391;-75
2021/07/29 07:28:19;;;;;;;8.30;2.90;;;20.00;95.50;;;;;;4163356;28;20055;-78
2021/07/29 07:30:22;;;;;;;10.38;3.28;;;20.20;95.40;;;;;;4163145;28;20413;-78
2021/07/29 07:32:25;;;;;;;10.82;2.53;;;20.20;94.90;;;;;;4163057;28;20075;-77
2021/07/29 07:34:28;;;;;;;11.40;3.08;;;20.30;94.90;;;;;;4163046;28;20641;-79
2021/07/29 07:36:31;;;;;;;9.05;2.55;;;20.40;94.80;;;;;;4162658;28;20058;-77
2021/07/29 07:38:34;;;;;;;10.35;2.65;;;20.60;94.70;;;;;;4163022;28;20057;-77
2021/07/29 07:40:39;;;;;;;13.73;2.67;;;20.60;94.50;;;;;;4162683;28;20041;-74
2021/07/29 07:42:43;;;;;;;9.90;2.60;;;20.40;94.40;;;;;;4162902;28;20061;-76
2021/07/29 07:44:46;;;;;;;9.60;2.25;;;20.30;94.60;;;;;;4162866;28;20053;-77
2021/07/29 07:46:49;;;;;;;9.10;2.63;;;20.60;94.80;;;;;;4163014;28;20084;-75
2021/07/29 07:48:52;;;;;;;9.43;2.92;;;20.80;94.60;;;;;;4162465;28;20052;-77
2021/07/29 07:50:55;;;;;;;4.85;2.05;;;20.90;94.20;;;;;;4162852;28;20079;-77
2021/07/29 07:53:02;;;;;;;9.63;2.33;;;21.00;94.10;;;;;;4161107;28;20053;-74
2021/07/29 07:55:06;;;;;;;8.95;2.17;;;21.20;93.90;;;;;;4162485;28;20065;-75
2021/07/29 07:57:10;;;;;;;8.75;2.20;;;21.30;93.60;;;;;;4162796;28;20053;-77
2021/07/29 07:59:14;;;;;;;9.82;2.45;;;21.20;93.20;;;;;;4162947;28;20064;-75
2021/07/29 08:01:17;;;;;;;7.22;2.13;;;21.30;93.60;;;;;;4162848;28;20041;-78
2021/07/29 08:03:20;;;;;;;10.82;2.75;;;21.20;93.20;;;;;;4162715;28;20149;-77
2021/07/29 08:05:23;;;;;;;10.05;2.50;;;21.20;93.00;;;;;;4161800;28;20613;-75
2021/07/29 08:07:26;;;;;;;9.48;2.55;;;21.20;92.60;;;;;;4163145;28;20050;-77
2021/07/29 08:09:29;;;;;;;9.27;2.13;;;21.30;92.20;;;;;;4163357;28;20136;-79
2021/07/29 08:11:32;;;;;;;9.07;2.83;;;21.50;92.20;;;;;;4163597;28;20063;-81
2021/07/29 08:13:38;;;;;;;8.45;2.03;;;21.80;91.90;;;;;;4165078;28;20065;-77
2021/07/29 08:15:41;;;;;;;9.45;2.38;;;21.80;91.60;;;;;;4163734;28;20405;-75
2021/07/29 08:17:44;;;;;;;10.98;2.25;;;21.60;91.40;;;;;;4167069;28;20057;-75
2021/07/29 08:19:48;;;;;;;8.95;2.20;;;21.50;91.50;;;;;;4169131;28;20049;-76
2021/07/29 08:21:51;;;;;;;9.40;2.15;;;21.70;92.00;;;;;;4174110;28;20121;-75
2021/07/29 08:23:54;;;;;;;9.80;2.35;;;21.80;91.40;;;;;;4173859;28;20128;-75
2021/07/29 08:25:57;;;;;;;11.15;2.17;;;22.00;91.50;;;;;;4174084;28;20057;-75
2021/07/29 08:28:00;;;;;;;10.98;2.05;;;22.10;91.00;;;;;;4166887;28;20542;-76
2021/07/29 08:30:05;;;;;;;7.45;1.95;;;22.20;91.00;;;;;;4166051;28;20049;-78
2021/07/29 08:32:10;;;;;;;6.35;1.77;;;22.30;90.20;;;;;;4163861;28;20133;-77
2021/07/29 08:34:13;;;;;;;8.57;1.90;;;22.40;87.80;;;;;;4165574;28;20402;-80
2021/07/29 08:36:17;;;;;;;7.65;2.38;;;22.50;87.90;;;;;;4168745;28;20053;-78
2021/07/29 08:38:20;;;;;;;5.80;1.88;;;22.50;87.60;;;;;;4169427;28;20049;-75
2021/07/29 08:40:27;;;;;;;7.93;2.00;;;22.70;84.50;;;;;;4172816;28;20236;-75
2021/07/29 08:42:31;;;;;;;6.22;1.60;;;22.70;86.70;;;;;;4173818;28;20081;-75
2021/07/29 08:44:35;;;;;;;12.32;2.03;;;22.70;86.00;;;;;;4173083;28;20124;-78
2021/07/29 08:46:43;;;;;;;10.35;2.40;;;22.70;85.90;;;;;;4165521;28;20132;-75
2021/07/29 08:48:49;;;;;;;9.15;2.17;;;22.70;86.50;;;;;;4164322;28;20062;-76
2021/07/29 08:50:53;;;;;;;7.95;2.10;;;22.70;86.10;;;;;;4163701;28;20468;-77
2021/07/29 08:52:56;;;;;;;7.15;1.60;;;22.60;85.30;;;;;;4163924;28;20079;-79
2021/07/29 08:55:00;;;;;;;5.20;1.65;;;22.60;83.90;;;;;;4165642;28;20446;-80
2021/07/29 08:57:04;;;;;;;10.57;1.70;;;22.60;82.20;;;;;;4165447;28;20053;-79
2021/07/29 08:59:07;;;;;;;7.70;1.77;;;22.60;83.70;;;;;;4149408;28;20050;-80
2021/07/29 09:01:12;;;;;;;7.20;1.77;;;22.70;84.70;;;;;;4152001;28;20057;-79
2021/07/29 09:03:23;;;;;;;5.57;1.60;;;22.70;84.50;;;;;;4166059;28;20087;-80
2021/07/29 09:05:27;;;;;;;8.23;1.83;;;22.70;84.50;;;;;;4165602;28;20463;-79
2021/07/29 09:07:30;;;;;;;6.05;1.55;;;22.60;83.30;;;;;;4166113;28;20059;-79
2021/07/29 09:09:39;;;;;;;7.38;2.25;;;22.70;84.70;;;;;;4166251;28;20132;-78
2021/07/29 09:11:42;;;;;;;3.55;1.20;;;22.70;84.90;;;;;;4165846;28;20053;-80
2021/07/29 09:14:04;;;;;;;8.68;1.60;;;22.80;84.50;;;;;;4165877;28;20061;-79
2021/07/29 09:16:11;;;;;;;5.32;1.85;;;22.60;82.60;;;;;;4165591;28;20064;-78
2021/07/29 09:18:18;;;;;;;7.43;2.10;;;22.40;83.00;;;;;;4165501;28;20508;-81
2021/07/29 09:20:22;;;;;;;7.72;1.83;;;22.50;83.70;;;;;;4166306;28;20049;-76
2021/07/29 09:22:28;;;;;;;7.47;1.75;;;22.50;83.20;;;;;;4165153;28;20061;-80
2021/07/29 09:24:31;;;;;;;7.50;2.25;;;22.50;83.50;;;;;;4146323;28;20107;-77
2021/07/29 09:27:05;;;;;;;4.47;1.55;;;22.60;83.60;;;;;;4164058;28;20128;-77
2021/07/29 09:29:20;;;;;;;10.85;1.85;;;22.70;82.50;;;;;;4140667;28;20122;-79
2021/07/29 09:31:24;;;;;;;7.28;1.60;;;22.70;80.80;;;;;;4164309;28;20060;-79
2021/07/29 09:33:27;;;;;;;9.15;2.22;;;22.50;81.80;;;;;;4164342;28;20080;-79
2021/07/29 09:35:40;;;;;;;8.52;2.05;;;22.60;83.40;;;;;;4165778;28;20053;-81
2021/07/29 09:37:51;;;;;;;8.75;2.08;;;22.90;83.40;;;;;;4166143;28;20052;-78
2021/07/29 09:40:01;;;;;;;6.95;1.83;;;23.00;82.30;;;;;;4165601;28;20059;-79
2021/07/29 09:42:19;;;;;;;7.32;1.67;;;23.10;80.80;;;;;;4163850;28;20413;-77
2021/07/29 09:44:39;;;;;;;8.43;1.63;;;23.20;80.40;;;;;;4147493;28;20133;-77
2021/07/29 09:46:42;;;;;;;14.20;2.28;;;23.30;80.20;;;;;;4165022;28;20401;-78
2021/07/29 09:48:47;;;;;;;6.03;1.58;;;23.30;80.30;;;;;;4164060;28;20057;-80
2021/07/29 09:50:58;;;;;;;9.32;1.85;;;23.20;78.80;;;;;;4165750;28;20045;-79
2021/07/29 09:53:02;;;;;;;8.65;2.47;;;23.00;77.60;;;;;;4165656;28;20492;-77
2021/07/29 09:55:07;;;;;;;5.20;1.63;;;23.00;78.00;;;;;;4164504;28;20058;-79
2021/07/29 09:57:12;;;;;;;8.15;1.50;;;23.00;78.70;;;;;;4166331;28;20576;-77
2021/07/29 09:59:15;;;;;;;5.25;1.88;;;22.80;77.00;;;;;;4168143;28;20068;-78
2021/07/29 10:01:18;;;;;;;11.30;1.70;;;22.90;77.10;;;;;;4165736;28;20452;-79
2021/07/29 10:03:23;;;;;;;5.35;1.48;;;22.70;76.70;;;;;;4164577;28;20490;-80
2021/07/29 10:05:37;;;;;;;5.68;1.80;;;22.90;76.80;;;;;;4164215;28;20137;-76
2021/07/29 10:07:47;;;;;;;8.32;1.67;;;23.00;76.20;;;;;;4164359;28;20041;-79
2021/07/29 10:09:52;;;;;;;6.57;1.52;;;23.20;76.90;;;;;;4164540;28;20635;-76
2021/07/29 10:11:58;;;;;;;9.90;1.95;;;23.10;76.20;;;;;;4164078;28;20053;-77
2021/07/29 10:14:02;;;;;;;7.30;1.45;;;23.20;76.50;;;;;;4163801;28;20059;-76
2021/07/29 10:16:06;;;;;;;7.05;1.58;;;23.30;75.50;;;;;;4162976;28;20401;-78
2021/07/29 10:18:10;;;;;;;4.05;1.50;;;23.50;76.20;;;;;;4164315;28;20057;-75
2021/07/29 10:20:16;;;;;;;9.23;1.88;;;23.80;76.00;;;;;;4164616;28;20049;-77
2021/07/29 10:22:22;;;;;;;10.48;1.90;;;23.80;73.70;;;;;;4162330;28;20053;-76
2021/07/29 10:24:56;;;;;;;5.93;1.60;;;23.40;73.00;;;;;;4162486;28;20107;-76
2021/07/29 10:27:17;;;;;;;12.95;1.90;;;23.10;75.20;;;;;;4165224;28;20068;-77
2021/07/29 10:29:24;;;;;;;9.50;2.13;;;23.00;74.40;;;;;;4163765;28;20056;-77
2021/07/29 10:31:47;;;;;;;8.50;1.73;;;23.10;74.70;;;;;;4163677;28;20045;-77
2021/07/29 10:34:22;;;;;;;6.20;2.15;;;23.30;75.20;;;;;;4163585;28;20053;-79
2021/07/29 10:36:45;;;;;;;8.40;1.90;;;23.50;74.00;;;;;;4161285;28;20045;-78
2021/07/29 10:38:53;;;;;;;5.47;1.60;;;23.40;73.40;;;;;;4163284;28;20467;-77
2021/07/29 10:41:04;;;;;;;6.22;1.60;;;23.50;73.30;;;;;;4163313;28;20060;-78
2021/07/29 10:43:39;;;;;;;9.80;1.65;;;23.50;72.20;;;;;;4163555;28;20045;-78
2021/07/29 10:45:48;;;;;;;6.82;1.52;;;23.50;72.90;;;;;;4161720;28;20140;-78
2021/07/29 10:47:51;;;;;;;9.07;1.60;;;23.50;71.00;;;;;;4163441;28;20079;-77
2021/07/29 10:50:20;;;;;;;10.15;1.77;;;23.50;72.70;;;;;;4163097;28;20520;-78